createdAt,value
2023-05-21T00:01:25.866Z,3.10
2023-05-21T00:06:27.946Z,3.45
2023-05-21T00:11:29.772Z,3.40
2023-05-21T00:16:31.721Z,3.05
2023-05-21T00:21:33.655Z,3.47
2023-05-21T00:26:35.882Z,3.00
2023-05-21T00:31:37.925Z,3.00
2023-05-21T00:36:40.651Z,3.40
2023-05-21T00:41:43.226Z,3.60
2023-05-21T00:46:45.358Z,3.95
2023-05-21T00:51:48.366Z,3.35
2023-05-21T00:56:51.198Z,3.30
2023-05-21T01:01:56.248Z,3.58
2023-05-21T01:06:59.329Z,3.70
2023-05-21T01:12:01.731Z,3.63
2023-05-21T01:17:11.716Z,3.28
2023-05-21T01:22:14.363Z,3.50
2023-05-21T01:27:18.396Z,3.08
2023-05-21T01:32:51.561Z,2.95
2023-05-21T01:37:58.437Z,3.80
2023-05-21T01:43:07.505Z,3.42
2023-05-21T01:48:12.306Z,3.55
2023-05-21T01:53:17.311Z,3.08
2023-05-21T01:58:19.980Z,4.10
2023-05-21T02:03:22.037Z,3.60
2023-05-21T02:08:27.950Z,3.33
2023-05-21T02:13:32.454Z,3.30
2023-05-21T02:18:34.203Z,3.25
2023-05-21T02:23:36.212Z,3.22
2023-05-21T02:28:40.551Z,3.42
2023-05-21T02:33:45.314Z,2.92
2023-05-21T02:38:47.774Z,3.05
2023-05-21T02:43:51.641Z,3.60
2023-05-21T02:48:57.921Z,3.38
2023-05-21T02:54:02.485Z,3.33
2023-05-21T02:59:04.329Z,2.95
2023-05-21T03:04:13.409Z,3.13
2023-05-21T03:09:17.700Z,3.35
2023-05-21T03:14:19.467Z,3.28
2023-05-21T03:19:25.183Z,3.08
2023-05-21T03:24:29.591Z,3.08
2023-05-21T03:29:31.550Z,3.35
2023-05-21T03:34:34.947Z,3.10
2023-05-21T03:39:42.257Z,3.72
2023-05-21T03:44:46.205Z,2.95
2023-05-21T03:50:11.332Z,3.60
2023-05-21T03:55:14.105Z,2.88
2023-05-21T04:00:16.129Z,2.85
2023-05-21T04:05:17.862Z,3.70
2023-05-21T04:10:20.396Z,2.70
2023-05-21T04:15:24.444Z,3.13
2023-05-21T04:20:28.688Z,3.20
2023-05-21T04:25:30.521Z,3.35
2023-05-21T04:30:39.480Z,3.42
2023-05-21T04:35:44.648Z,3.22
2023-05-21T04:40:52.262Z,3.10
2023-05-21T04:45:57.590Z,3.08
2023-05-21T04:50:59.925Z,3.22
2023-05-21T04:56:03.231Z,2.88
2023-05-21T05:01:05.463Z,3.00
2023-05-21T05:06:08.483Z,3.40
2023-05-21T05:11:13.394Z,3.20
2023-05-21T05:16:18.434Z,2.90
2023-05-21T05:21:23.299Z,3.15
2023-05-21T05:26:25.652Z,3.08
2023-05-21T05:31:27.558Z,3.50
2023-05-21T05:36:31.687Z,3.25
2023-05-21T05:41:33.727Z,3.25
2023-05-21T05:46:38.026Z,3.17
2023-05-21T05:51:43.080Z,3.30
2023-05-21T05:56:44.983Z,3.63
2023-05-21T06:01:47.217Z,3.35
2023-05-21T06:06:49.168Z,3.83
2023-05-21T06:11:53.451Z,3.05
2023-05-21T06:16:57.647Z,3.55
2023-05-21T06:22:04.737Z,4.30
2023-05-21T06:27:07.287Z,3.38
2023-05-21T06:32:11.607Z,3.90
2023-05-21T06:37:14.437Z,4.03
2023-05-21T06:42:16.561Z,3.65
2023-05-21T06:47:28.468Z,3.88
2023-05-21T06:52:31.861Z,3.90
2023-05-21T06:57:35.635Z,4.15
2023-05-21T07:02:37.541Z,4.38
2023-05-21T07:07:39.635Z,4.30
2023-05-21T07:12:43.765Z,4.60
2023-05-21T07:17:48.587Z,4.63
2023-05-21T07:22:50.695Z,5.13
2023-05-21T07:27:52.725Z,4.43
2023-05-21T07:32:57.403Z,4.75
2023-05-21T07:38:01.656Z,4.38
2023-05-21T07:43:06.465Z,4.80
2023-05-21T07:48:12.098Z,4.85
2023-05-21T07:53:24.655Z,5.60
2023-05-21T07:58:31.112Z,5.63
2023-05-21T08:03:33.896Z,5.00
2023-05-21T08:08:36.900Z,5.28
2023-05-21T08:13:39.136Z,5.53
2023-05-21T08:18:43.283Z,5.78
2023-05-21T08:23:47.519Z,6.20
2023-05-21T08:28:50.111Z,6.28
2023-05-21T08:33:52.821Z,6.22
2023-05-21T08:39:01.558Z,6.43
2023-05-21T08:44:14.249Z,7.03
2023-05-21T08:49:19.329Z,6.38
2023-05-21T08:54:23.516Z,6.22
2023-05-21T08:59:25.774Z,6.60
2023-05-21T09:04:31.501Z,7.43
2023-05-21T09:09:34.999Z,7.50
2023-05-21T09:14:39.548Z,6.65
2023-05-21T09:20:15.026Z,8.63
2023-05-21T09:25:28.023Z,7.60
2023-05-21T09:30:31.912Z,8.05
2023-05-21T09:35:38.327Z,7.53
2023-05-21T09:40:46.638Z,8.57
2023-05-21T09:45:52.942Z,9.02
2023-05-21T09:51:09.393Z,9.55
2023-05-21T09:56:11.385Z,9.27
2023-05-21T10:01:15.916Z,9.40
2023-05-21T10:06:19.193Z,10.27
2023-05-21T10:11:27.487Z,9.10
2023-05-21T10:16:32.893Z,9.40
2023-05-21T10:21:35.087Z,9.52
2023-05-21T10:26:38.488Z,8.50
2023-05-21T10:31:43.779Z,8.57
2023-05-21T10:36:46.414Z,7.95
2023-05-21T10:42:29.711Z,8.77
2023-05-21T10:48:06.092Z,9.60
2023-05-21T10:53:45.413Z,8.75
2023-05-21T10:59:00.074Z,8.85
2023-05-21T11:04:08.306Z,9.70
2023-05-21T11:09:13.986Z,10.32
2023-05-21T11:14:38.963Z,11.07
2023-05-21T11:19:55.727Z,10.23
2023-05-21T11:25:01.698Z,11.65
2023-05-21T11:30:10.331Z,10.48
2023-05-21T11:35:14.103Z,10.48
2023-05-21T11:40:31.118Z,12.20
2023-05-21T11:45:35.271Z,11.35
2023-05-21T11:50:42.362Z,11.43
2023-05-21T11:55:47.434Z,11.20
2023-05-21T12:00:53.867Z,11.27
2023-05-21T12:06:05.521Z,11.73
2023-05-21T12:11:07.432Z,12.32
2023-05-21T12:16:14.183Z,12.15
2023-05-21T12:21:15.979Z,11.57
2023-05-21T12:26:20.033Z,11.98
2023-05-21T12:31:23.271Z,12.18
2023-05-21T12:36:34.384Z,11.52
2023-05-21T12:41:42.986Z,11.27
2023-05-21T12:46:44.952Z,11.02
2023-05-21T12:51:50.227Z,11.18
2023-05-21T12:56:51.975Z,11.80
2023-05-21T13:01:56.747Z,11.00
2023-05-21T13:07:02.864Z,10.52
2023-05-21T13:12:09.450Z,11.77
2023-05-21T13:17:13.852Z,9.63
2023-05-21T13:22:15.734Z,10.35
2023-05-21T13:27:21.011Z,11.43
2023-05-21T13:32:23.019Z,11.23
2023-05-21T13:37:27.203Z,11.65
2023-05-21T13:42:29.049Z,11.52
2023-05-21T13:47:30.937Z,11.15
2023-05-21T13:52:32.728Z,10.75
2023-05-21T13:57:34.648Z,9.38
2023-05-21T14:02:36.621Z,10.45
2023-05-21T14:07:43.325Z,10.65
2023-05-21T14:12:48.647Z,10.57
2023-05-21T14:17:52.324Z,10.80
2023-05-21T14:22:54.183Z,10.68
2023-05-21T14:27:58.276Z,11.38
2023-05-21T14:33:05.704Z,11.10
2023-05-21T14:38:07.666Z,11.82
2023-05-21T14:43:12.409Z,12.30
2023-05-21T14:48:24.697Z,12.15
2023-05-21T14:53:28.709Z,11.60
2023-05-21T14:58:34.758Z,11.63
2023-05-21T15:03:39.645Z,12.15
2023-05-21T15:08:48.604Z,12.52
2023-05-21T15:13:55.067Z,12.50
2023-05-21T15:18:56.895Z,12.80
2023-05-21T15:23:58.713Z,12.10
2023-05-21T15:29:03.928Z,11.73
2023-05-21T15:34:05.814Z,11.07
2023-05-21T15:39:07.790Z,12.48
2023-05-21T15:44:09.586Z,11.77
2023-05-21T15:49:13.540Z,10.95
2023-05-21T15:54:15.558Z,11.63
2023-05-21T15:59:20.803Z,11.23
2023-05-21T16:04:24.935Z,11.27
2023-05-21T16:09:31.609Z,11.60
2023-05-21T16:14:35.911Z,12.10
2023-05-21T16:19:40.419Z,12.20
2023-05-21T16:24:42.371Z,11.88
2023-05-21T16:29:44.728Z,12.65
2023-05-21T16:34:46.567Z,11.18
2023-05-21T16:39:48.369Z,11.55
2023-05-21T16:44:50.453Z,11.32
2023-05-21T16:49:52.759Z,12.20
2023-05-21T16:54:54.525Z,11.68
2023-05-21T16:59:58.924Z,12.00
2023-05-21T17:05:05.336Z,11.55
2023-05-21T17:10:12.278Z,11.90
2023-05-21T17:15:14.065Z,11.93
2023-05-21T17:20:18.214Z,11.40
2023-05-21T17:25:22.479Z,11.43
2023-05-21T17:30:24.474Z,10.85
2023-05-21T17:35:28.532Z,10.93
2023-05-21T17:40:32.515Z,11.05
2023-05-21T17:45:34.383Z,10.73
2023-05-21T17:50:36.195Z,10.35
2023-05-21T17:55:38.214Z,11.20
2023-05-21T18:00:40.448Z,12.05
2023-05-21T18:05:44.658Z,11.65
2023-05-21T18:10:48.029Z,11.70
2023-05-21T18:15:49.915Z,11.10
2023-05-21T18:20:55.574Z,12.25
2023-05-21T18:25:57.397Z,7.90
2023-05-21T18:31:03.835Z,10.82
2023-05-21T18:36:05.946Z,10.07
2023-05-21T18:41:10.019Z,10.18
2023-05-21T18:46:14.395Z,8.68
2023-05-21T18:51:16.279Z,9.57
2023-05-21T18:56:18.140Z,10.02
2023-05-21T19:01:19.946Z,8.85
2023-05-21T19:06:25.581Z,8.35
2023-05-21T19:11:31.037Z,8.40
2023-05-21T19:16:35.328Z,8.73
2023-05-21T19:21:42.097Z,8.80
2023-05-21T19:26:43.828Z,8.98
2023-05-21T19:31:48.768Z,8.88
2023-05-21T19:36:53.674Z,9.50
2023-05-21T19:41:57.810Z,9.80
2023-05-21T19:47:04.929Z,9.30
2023-05-21T19:52:06.749Z,9.65
2023-05-21T19:57:13.220Z,9.63
2023-05-21T20:02:17.090Z,9.52
2023-05-21T20:07:18.940Z,9.60
2023-05-21T20:12:23.573Z,9.65
2023-05-21T20:17:25.572Z,10.35
2023-05-21T20:22:28.166Z,10.70
2023-05-21T20:27:34.460Z,10.40
2023-05-21T20:32:37.490Z,10.40
2023-05-21T20:37:44.202Z,10.10
2023-05-21T20:42:50.417Z,10.63
2023-05-21T20:47:53.628Z,11.13
2023-05-21T20:52:55.494Z,10.48
2023-05-21T20:58:00.218Z,11.13
2023-05-21T21:03:03.857Z,11.63
2023-05-21T21:08:08.285Z,10.60
2023-05-21T21:13:10.307Z,10.45
2023-05-21T21:18:12.592Z,12.13
2023-05-21T21:23:17.506Z,12.10
2023-05-21T21:28:22.248Z,11.35
2023-05-21T21:33:26.556Z,11.63
2023-05-21T21:38:33.033Z,11.80
2023-05-21T21:43:34.994Z,12.20
2023-05-21T21:48:36.720Z,12.00
2023-05-21T21:53:42.938Z,12.05
2023-05-21T21:58:45.042Z,12.15
2023-05-21T22:03:46.932Z,12.80
2023-05-21T22:08:48.746Z,13.52
2023-05-21T22:13:50.644Z,13.05
2023-05-21T22:18:54.154Z,12.27
2023-05-21T22:23:56.252Z,12.63
2023-05-21T22:28:59.089Z,12.93
2023-05-21T22:34:00.814Z,13.05
2023-05-21T22:39:02.576Z,13.75
2023-05-21T22:44:06.714Z,13.00
2023-05-21T22:49:10.723Z,12.82
2023-05-21T22:54:14.737Z,13.32
2023-05-21T22:59:18.702Z,12.32
2023-05-21T23:04:35.786Z,13.25
2023-05-21T23:09:44.273Z,12.43
2023-05-21T23:14:49.056Z,13.07
2023-05-21T23:19:52.436Z,12.45
2023-05-21T23:24:56.395Z,12.80
2023-05-21T23:30:00.405Z,12.48
2023-05-21T23:35:08.175Z,13.30
2023-05-21T23:40:10.975Z,13.43
2023-05-21T23:45:12.790Z,11.98
2023-05-21T23:50:16.859Z,12.55
2023-05-21T23:55:21.094Z,13.23
